createdAt,value
2019-03-24T00:00:31.383Z,70.37
2019-03-24T00:02:59.927Z,67.40
2019-03-24T00:05:28.343Z,64.33
2019-03-24T00:07:57.001Z,65.83
2019-03-24T00:10:25.491Z,70.30
2019-03-24T00:12:53.946Z,62.30
2019-03-24T00:15:26.456Z,67.60
2019-03-24T00:17:52.948Z,66.90
2019-03-24T00:20:21.356Z,69.93
2019-03-24T00:22:50.041Z,65.80
2019-03-24T00:25:18.505Z,70.37
2019-03-24T00:27:46.978Z,69.90
2019-03-24T00:30:15.957Z,71.07
2019-03-24T00:32:44.401Z,66.70
2019-03-24T00:35:12.931Z,71.40
2019-03-24T00:37:41.368Z,66.83
2019-03-24T00:40:09.959Z,77.30
2019-03-24T00:42:38.392Z,79.73
2019-03-24T00:45:08.517Z,68.30
2019-03-24T00:47:36.969Z,72.43
2019-03-24T00:50:06.620Z,66.47
2019-03-24T00:52:35.085Z,68.00
2019-03-24T00:55:04.499Z,67.93
2019-03-24T00:57:32.907Z,72.37
2019-03-24T01:00:01.369Z,79.90
2019-03-24T01:02:29.880Z,70.60
2019-03-24T01:04:58.397Z,68.83
2019-03-24T01:07:26.879Z,72.83
2019-03-24T01:09:55.374Z,67.40
2019-03-24T01:12:23.863Z,74.83
2019-03-24T01:14:52.302Z,71.63
2019-03-24T01:17:20.816Z,78.40
2019-03-24T01:19:49.256Z,79.60
2019-03-24T01:22:17.685Z,81.13
2019-03-24T01:24:46.132Z,77.50
2019-03-24T01:27:14.540Z,76.30
2019-03-24T01:29:42.993Z,71.53
2019-03-24T01:32:11.411Z,68.93
2019-03-24T01:34:39.918Z,69.97
2019-03-24T01:37:08.333Z,71.47
2019-03-24T01:39:36.790Z,76.30
2019-03-24T01:42:05.261Z,68.10
2019-03-24T01:44:33.699Z,75.47
2019-03-24T01:47:02.136Z,75.23
2019-03-24T01:49:30.602Z,73.23
2019-03-24T01:51:59.028Z,78.80
2019-03-24T01:54:27.495Z,80.93
2019-03-24T01:56:55.908Z,86.90
2019-03-24T01:59:24.355Z,83.10
2019-03-24T02:01:52.772Z,66.53
2019-03-24T02:04:21.210Z,70.00
2019-03-24T02:06:49.660Z,74.27
2019-03-24T02:09:18.146Z,77.13
2019-03-24T02:11:46.572Z,76.60
2019-03-24T02:14:15.002Z,72.67
2019-03-24T02:16:43.449Z,75.63
2019-03-24T02:19:12.001Z,72.60
2019-03-24T02:21:40.436Z,76.43
2019-03-24T02:24:08.865Z,74.57
2019-03-24T02:26:37.343Z,80.80
2019-03-24T02:29:05.756Z,81.47
2019-03-24T02:31:34.194Z,63.67
2019-03-24T02:34:02.644Z,68.87
2019-03-24T02:36:31.078Z,69.93
2019-03-24T02:38:59.507Z,73.20
2019-03-24T02:41:27.936Z,75.47
2019-03-24T02:43:56.350Z,73.03
2019-03-24T02:46:25.208Z,85.60
2019-03-24T02:48:53.789Z,80.50
2019-03-24T02:51:22.294Z,73.87
2019-03-24T02:53:50.718Z,82.77
2019-03-24T02:56:19.170Z,74.77
2019-03-24T02:58:47.668Z,73.10
2019-03-24T03:01:16.137Z,74.67
2019-03-24T03:03:44.565Z,78.53
2019-03-24T03:06:13.015Z,79.03
2019-03-24T03:08:41.422Z,76.53
2019-03-24T03:11:09.908Z,72.07
2019-03-24T03:13:38.373Z,81.77
2019-03-24T03:16:06.899Z,67.10
2019-03-24T03:18:35.425Z,73.73
2019-03-24T03:21:04.164Z,74.87
2019-03-24T03:23:32.564Z,72.90
2019-03-24T03:26:00.997Z,72.53
2019-03-24T03:28:29.434Z,72.63
2019-03-24T03:30:57.863Z,70.90
2019-03-24T03:33:26.437Z,64.63
2019-03-24T03:35:54.847Z,72.57
2019-03-24T03:38:23.292Z,71.53
2019-03-24T03:40:51.769Z,87.80
2019-03-24T03:43:20.450Z,68.43
2019-03-24T03:45:48.870Z,68.60
2019-03-24T03:48:17.342Z,67.27
2019-03-24T03:50:45.829Z,71.47
2019-03-24T03:53:14.260Z,68.77
2019-03-24T03:55:42.666Z,65.60
2019-03-24T03:58:11.149Z,64.40
2019-03-24T04:00:39.661Z,67.90
2019-03-24T04:03:08.563Z,65.03
2019-03-24T04:05:37.028Z,67.50
2019-03-24T04:08:06.228Z,77.30
2019-03-24T04:10:34.749Z,68.93
2019-03-24T04:13:03.311Z,76.13
2019-03-24T04:15:31.762Z,67.13
2019-03-24T04:18:00.173Z,64.63
2019-03-24T04:20:28.614Z,62.50
2019-03-24T04:22:57.019Z,72.80
2019-03-24T04:25:25.529Z,60.03
2019-03-24T04:27:54.014Z,65.20
2019-03-24T04:30:22.485Z,62.97
2019-03-24T04:32:50.945Z,69.30
2019-03-24T04:35:19.397Z,62.50
2019-03-24T04:37:47.894Z,67.40
2019-03-24T04:40:16.324Z,58.23
2019-03-24T04:42:44.732Z,58.97
2019-03-24T04:45:13.320Z,53.50
2019-03-24T04:47:41.732Z,51.67
2019-03-24T04:50:10.705Z,49.93
2019-03-24T04:52:39.122Z,57.37
2019-03-24T04:55:08.079Z,44.60
2019-03-24T04:57:36.628Z,50.50
2019-03-24T05:00:07.607Z,49.30
2019-03-24T05:02:36.020Z,52.37
2019-03-24T05:05:06.828Z,48.33
2019-03-24T05:07:35.304Z,44.93
2019-03-24T05:10:05.674Z,48.00
2019-03-24T05:12:34.301Z,45.23
2019-03-24T05:15:02.715Z,47.67
2019-03-24T05:17:31.150Z,46.93
2019-03-24T05:19:59.569Z,43.50
2019-03-24T05:22:28.009Z,44.10
2019-03-24T05:24:56.420Z,55.00
2019-03-24T05:27:24.861Z,42.60
2019-03-24T05:29:53.293Z,44.30
2019-03-24T05:32:21.781Z,45.33
2019-03-24T05:34:50.220Z,41.63
2019-03-24T05:37:18.658Z,46.53
2019-03-24T05:39:47.073Z,41.50
2019-03-24T05:42:15.509Z,39.33
2019-03-24T05:44:43.970Z,43.03
2019-03-24T05:47:12.440Z,39.03
2019-03-24T05:49:40.893Z,41.53
2019-03-24T05:52:09.309Z,38.20
2019-03-24T05:54:37.758Z,40.17
2019-03-24T05:57:06.207Z,44.00
2019-03-24T05:59:34.680Z,44.53
2019-03-24T06:02:03.100Z,41.13
2019-03-24T06:04:31.580Z,40.40
2019-03-24T06:07:00.015Z,39.03
2019-03-24T06:09:28.496Z,46.10
2019-03-24T06:11:56.923Z,40.07
2019-03-24T06:14:25.468Z,43.90
2019-03-24T06:16:53.904Z,43.83
2019-03-24T06:19:22.333Z,38.97
2019-03-24T06:21:50.809Z,44.77
2019-03-24T06:24:19.331Z,40.10
2019-03-24T06:26:47.823Z,45.10
2019-03-24T06:29:16.324Z,42.67
2019-03-24T06:31:44.857Z,44.67
2019-03-24T06:34:13.367Z,46.90
2019-03-24T06:36:41.809Z,44.33
2019-03-24T06:39:10.277Z,50.10
2019-03-24T06:41:38.684Z,42.43
2019-03-24T06:44:07.242Z,46.40
2019-03-24T06:46:35.772Z,52.00
2019-03-24T06:49:04.226Z,42.77
2019-03-24T06:51:32.793Z,43.57
2019-03-24T06:54:01.241Z,47.30
2019-03-24T06:56:29.790Z,49.03
2019-03-24T06:58:58.220Z,54.50
2019-03-24T07:01:26.719Z,51.77
2019-03-24T07:03:55.160Z,48.63
2019-03-24T07:06:23.608Z,53.83
2019-03-24T07:08:52.064Z,56.70
2019-03-24T07:11:20.500Z,51.40
2019-03-24T07:13:49.081Z,50.10
2019-03-24T07:16:18.600Z,49.47
2019-03-24T07:18:47.242Z,45.37
2019-03-24T07:21:15.737Z,45.73
2019-03-24T07:23:44.204Z,47.57
2019-03-24T07:26:12.776Z,47.70
2019-03-24T07:28:41.228Z,50.13
2019-03-24T07:31:09.752Z,51.83
2019-03-24T07:33:38.216Z,51.23
2019-03-24T07:36:06.670Z,52.80
2019-03-24T07:38:35.086Z,45.70
2019-03-24T07:41:03.532Z,48.37
2019-03-24T07:43:32.272Z,50.67
2019-03-24T07:46:00.926Z,52.90
2019-03-24T07:48:29.358Z,47.63
2019-03-24T07:50:57.807Z,49.97
2019-03-24T07:53:26.313Z,56.00
2019-03-24T07:55:54.888Z,52.90
2019-03-24T07:58:23.385Z,54.80
2019-03-24T08:00:51.807Z,48.57
2019-03-24T08:03:20.330Z,53.63
2019-03-24T08:05:48.811Z,56.20
2019-03-24T08:08:17.246Z,57.90
2019-03-24T08:10:45.701Z,62.83
2019-03-24T08:13:14.172Z,58.50
2019-03-24T08:15:42.670Z,69.87
2019-03-24T08:18:11.187Z,66.60
2019-03-24T08:20:39.727Z,71.77
2019-03-24T08:23:08.207Z,65.33
2019-03-24T08:25:36.624Z,68.97
2019-03-24T08:28:05.168Z,79.70
2019-03-24T08:30:35.260Z,74.23
2019-03-24T08:33:04.595Z,69.50
2019-03-24T08:35:33.037Z,80.43
2019-03-24T08:38:01.754Z,67.53
2019-03-24T08:40:30.356Z,74.90
2019-03-24T08:42:58.842Z,78.17
2019-03-24T08:45:29.150Z,76.53
2019-03-24T08:47:58.043Z,71.93
2019-03-24T08:50:26.626Z,77.73
2019-03-24T08:52:55.072Z,69.83
2019-03-24T08:55:23.562Z,60.70
2019-03-24T08:57:51.978Z,70.30
2019-03-24T09:00:30.135Z,75.23
2019-03-24T09:02:50.629Z,79.10
2019-03-24T09:05:19.065Z,74.17
2019-03-24T09:07:47.514Z,77.37
2019-03-24T09:10:16.410Z,83.53
2019-03-24T09:12:44.854Z,78.20
2019-03-24T09:15:13.642Z,69.80
2019-03-24T09:17:42.096Z,77.10
2019-03-24T09:20:10.801Z,68.67
2019-03-24T09:22:39.344Z,76.97
2019-03-24T09:25:08.264Z,64.80
2019-03-24T09:27:36.946Z,70.23
2019-03-24T09:30:08.072Z,62.97
2019-03-24T09:32:36.582Z,74.73
2019-03-24T09:35:06.193Z,66.73
2019-03-24T09:37:34.636Z,75.30
2019-03-24T09:40:03.357Z,64.60
2019-03-24T09:42:31.849Z,63.60
2019-03-24T09:45:00.409Z,70.70
2019-03-24T09:47:28.874Z,68.80
2019-03-24T09:49:57.353Z,65.23
2019-03-24T09:52:25.810Z,65.53
2019-03-24T09:54:54.227Z,66.80
2019-03-24T09:57:22.849Z,69.07
2019-03-24T09:59:51.312Z,75.90
2019-03-24T10:02:19.741Z,71.70
2019-03-24T10:04:48.225Z,65.80
2019-03-24T10:07:16.650Z,70.20
2019-03-24T10:09:45.132Z,74.30
2019-03-24T10:12:13.626Z,68.93
2019-03-24T10:14:42.057Z,66.40
2019-03-24T10:17:10.509Z,67.77
2019-03-24T10:19:38.945Z,67.20
2019-03-24T10:22:07.428Z,75.63
2019-03-24T10:24:35.950Z,75.47
2019-03-24T10:27:04.406Z,72.40
2019-03-24T10:29:32.808Z,75.43
2019-03-24T10:32:01.275Z,69.87
2019-03-24T10:34:29.724Z,76.73
2019-03-24T10:36:58.224Z,79.13
2019-03-24T10:39:26.694Z,69.60
2019-03-24T10:41:55.135Z,72.43
2019-03-24T10:44:23.588Z,71.30
2019-03-24T10:46:52.049Z,73.37
2019-03-24T10:49:24.860Z,69.43
2019-03-24T10:51:50.647Z,68.50
2019-03-24T10:54:19.092Z,67.73
2019-03-24T10:56:47.539Z,66.60
2019-03-24T10:59:16.018Z,66.37
2019-03-24T11:01:44.498Z,68.60
2019-03-24T11:04:15.913Z,67.40
2019-03-24T11:06:43.923Z,58.90
2019-03-24T11:09:12.416Z,66.37
2019-03-24T11:11:40.906Z,63.87
2019-03-24T11:14:09.357Z,65.77
2019-03-24T11:16:37.828Z,59.60
2019-03-24T11:19:06.286Z,63.53
2019-03-24T11:21:34.740Z,66.97
2019-03-24T11:24:03.217Z,60.23
2019-03-24T11:26:31.646Z,64.27
2019-03-24T11:29:00.093Z,59.70
2019-03-24T11:31:28.551Z,64.03
2019-03-24T11:33:56.981Z,60.73
2019-03-24T11:36:25.551Z,63.83
2019-03-24T11:38:53.948Z,57.10
2019-03-24T11:41:22.484Z,57.90
2019-03-24T11:43:50.919Z,61.70
2019-03-24T11:46:19.426Z,61.30
2019-03-24T11:48:47.878Z,57.43
2019-03-24T11:51:16.385Z,58.30
2019-03-24T11:53:44.814Z,54.70
2019-03-24T11:56:13.253Z,53.50
2019-03-24T11:58:41.788Z,53.87
2019-03-24T12:01:10.322Z,51.63
2019-03-24T12:03:38.765Z,56.03
2019-03-24T12:06:14.517Z,54.67
2019-03-24T12:08:38.848Z,55.17
2019-03-24T12:11:07.430Z,51.90
2019-03-24T12:13:35.834Z,53.83
2019-03-24T12:16:04.458Z,53.60
2019-03-24T12:18:32.977Z,48.30
2019-03-24T12:21:01.466Z,56.53
2019-03-24T12:23:29.937Z,48.93
2019-03-24T12:25:58.506Z,47.20
2019-03-24T12:28:26.929Z,47.73
2019-03-24T12:30:55.360Z,47.70
2019-03-24T12:33:23.829Z,52.20
2019-03-24T12:35:52.229Z,51.50
2019-03-24T12:38:22.348Z,48.73
2019-03-24T12:40:50.875Z,48.93
2019-03-24T12:43:19.953Z,53.63
2019-03-24T12:45:48.526Z,43.47
2019-03-24T12:48:17.000Z,55.00
2019-03-24T12:50:45.547Z,54.13
2019-03-24T12:53:13.992Z,50.70
2019-03-24T12:55:42.426Z,51.17
2019-03-24T12:58:10.871Z,51.43
2019-03-24T13:00:39.937Z,47.73
2019-03-24T13:03:08.722Z,47.53
2019-03-24T13:05:37.322Z,48.70
2019-03-24T13:08:13.244Z,49.50
2019-03-24T13:10:42.789Z,50.93
2019-03-24T13:13:11.760Z,49.50
2019-03-24T13:15:40.817Z,47.87
2019-03-24T13:18:09.342Z,46.53
2019-03-24T13:20:38.767Z,50.50
2019-03-24T13:23:07.558Z,45.13
2019-03-24T13:25:36.391Z,46.00
2019-03-24T13:28:05.111Z,46.67
2019-03-24T13:30:33.558Z,52.03
2019-03-24T13:33:02.215Z,50.17
2019-03-24T13:35:30.653Z,46.80
2019-03-24T13:37:59.091Z,47.67
2019-03-24T13:40:27.526Z,43.50
2019-03-24T13:42:55.957Z,52.10
2019-03-24T13:45:24.406Z,42.57
2019-03-24T13:47:52.931Z,47.07
2019-03-24T13:50:31.045Z,47.47
2019-03-24T13:52:51.561Z,51.27
2019-03-24T13:55:20.007Z,48.97
2019-03-24T13:57:48.422Z,48.43
2019-03-24T14:00:17.812Z,50.47
2019-03-24T14:02:46.246Z,48.80
2019-03-24T14:05:14.796Z,47.40
2019-03-24T14:07:43.286Z,46.77
2019-03-24T14:10:11.949Z,45.23
2019-03-24T14:12:40.396Z,49.00
2019-03-24T14:15:09.672Z,45.43
2019-03-24T14:17:38.167Z,46.83
2019-03-24T14:20:07.666Z,43.90
2019-03-24T14:22:36.124Z,47.33
2019-03-24T14:25:06.909Z,44.00
2019-03-24T14:27:35.402Z,46.40
2019-03-24T14:30:08.229Z,43.20
2019-03-24T14:32:36.666Z,46.87
2019-03-24T14:35:06.433Z,52.80
2019-03-24T14:37:34.851Z,44.10
2019-03-24T14:40:05.120Z,48.27
2019-03-24T14:42:33.541Z,46.47
2019-03-24T14:45:02.057Z,49.57
2019-03-24T14:47:30.504Z,45.03
2019-03-24T14:49:58.950Z,45.93
2019-03-24T14:52:27.418Z,45.40
2019-03-24T14:54:55.847Z,46.47
2019-03-24T14:57:24.381Z,49.60
2019-03-24T14:59:52.818Z,49.10
2019-03-24T15:02:21.272Z,51.63
2019-03-24T15:04:49.688Z,48.90
2019-03-24T15:07:18.249Z,46.93
2019-03-24T15:09:46.684Z,48.40
2019-03-24T15:12:15.204Z,45.80
2019-03-24T15:14:43.630Z,47.90
2019-03-24T15:17:12.098Z,48.90
2019-03-24T15:19:40.508Z,46.03
2019-03-24T15:22:09.058Z,50.63
2019-03-24T15:24:37.512Z,54.90
2019-03-24T15:27:06.069Z,47.93
2019-03-24T15:29:34.509Z,52.40
2019-03-24T15:32:03.033Z,49.40
2019-03-24T15:34:31.454Z,47.87
2019-03-24T15:36:59.954Z,52.90
2019-03-24T15:39:28.430Z,53.60
2019-03-24T15:41:56.877Z,47.77
2019-03-24T15:44:25.331Z,47.43
2019-03-24T15:46:53.781Z,47.50
2019-03-24T15:49:22.388Z,50.10
2019-03-24T15:51:50.826Z,54.63
2019-03-24T15:54:19.381Z,43.30
2019-03-24T15:56:47.926Z,45.20
2019-03-24T15:59:17.311Z,50.80
2019-03-24T16:01:45.798Z,48.40
2019-03-24T16:04:14.301Z,46.00
2019-03-24T16:06:42.728Z,46.63
2019-03-24T16:09:11.201Z,50.70
2019-03-24T16:11:39.611Z,53.17
2019-03-24T16:14:08.069Z,46.33
2019-03-24T16:16:36.532Z,50.87
2019-03-24T16:19:05.097Z,49.97
2019-03-24T16:21:33.521Z,51.27
2019-03-24T16:24:02.006Z,53.13
2019-03-24T16:26:30.539Z,58.83
2019-03-24T16:28:58.992Z,50.20
2019-03-24T16:31:27.433Z,50.73
2019-03-24T16:33:55.932Z,49.23
2019-03-24T16:36:24.417Z,52.60
2019-03-24T16:39:02.942Z,47.93
2019-03-24T16:41:23.110Z,42.50
2019-03-24T16:43:51.761Z,46.20
2019-03-24T16:46:20.178Z,45.97
2019-03-24T16:48:48.619Z,46.97
2019-03-24T16:51:17.092Z,45.30
2019-03-24T16:53:45.550Z,51.97
2019-03-24T16:56:14.053Z,45.60
2019-03-24T16:58:42.538Z,43.17
2019-03-24T17:01:11.063Z,44.47
2019-03-24T17:03:39.582Z,40.87
2019-03-24T17:06:10.115Z,43.17
2019-03-24T17:08:38.330Z,42.17
2019-03-24T17:11:06.813Z,47.47
2019-03-24T17:13:35.255Z,48.80
2019-03-24T17:16:03.751Z,47.33
2019-03-24T17:18:32.242Z,49.03
2019-03-24T17:21:00.844Z,47.00
2019-03-24T17:23:29.335Z,50.10
2019-03-24T17:25:57.818Z,44.07
2019-03-24T17:28:26.231Z,46.57
2019-03-24T17:30:54.777Z,40.57
2019-03-24T17:33:23.223Z,41.97
2019-03-24T17:35:51.790Z,43.20
2019-03-24T17:38:20.285Z,44.87
2019-03-24T17:40:48.723Z,50.00
2019-03-24T17:43:17.274Z,46.73
2019-03-24T17:45:45.785Z,44.40
2019-03-24T17:48:14.382Z,44.87
2019-03-24T17:50:42.957Z,44.00
2019-03-24T17:53:11.500Z,45.30
2019-03-24T17:55:39.959Z,41.07
2019-03-24T17:58:08.389Z,45.60
2019-03-24T18:00:40.378Z,44.07
2019-03-24T18:03:08.968Z,45.97
2019-03-24T18:05:37.637Z,45.57
2019-03-24T18:08:06.265Z,47.63
2019-03-24T18:10:34.715Z,47.37
2019-03-24T18:13:03.315Z,49.20
2019-03-24T18:15:31.809Z,45.87
2019-03-24T18:18:00.320Z,43.90
2019-03-24T18:20:30.822Z,46.40
2019-03-24T18:22:59.329Z,48.90
2019-03-24T18:25:27.850Z,48.07
2019-03-24T18:27:56.551Z,47.23
2019-03-24T18:30:26.689Z,48.40
2019-03-24T18:32:55.305Z,46.37
2019-03-24T18:35:23.801Z,41.90
2019-03-24T18:37:52.249Z,44.53
2019-03-24T18:40:22.091Z,47.00
2019-03-24T18:42:50.525Z,47.80
2019-03-24T18:45:20.332Z,45.37
2019-03-24T18:47:48.912Z,47.00
2019-03-24T18:50:17.625Z,45.73
2019-03-24T18:52:46.237Z,43.43
2019-03-24T18:55:15.676Z,49.97
2019-03-24T18:57:44.281Z,42.50
2019-03-24T19:00:14.255Z,43.33
2019-03-24T19:02:42.829Z,39.97
2019-03-24T19:05:11.693Z,49.77
2019-03-24T19:07:40.288Z,44.73
2019-03-24T19:10:11.106Z,42.90
2019-03-24T19:12:39.604Z,41.27
2019-03-24T19:15:10.201Z,41.00
2019-03-24T19:17:38.749Z,41.07
2019-03-24T19:20:07.858Z,43.90
2019-03-24T19:22:36.451Z,43.03
2019-03-24T19:25:07.776Z,41.67
2019-03-24T19:27:36.312Z,39.90
2019-03-24T19:30:13.796Z,39.07
2019-03-24T19:32:42.419Z,39.40
2019-03-24T19:35:12.699Z,38.40
2019-03-24T19:37:42.237Z,41.70
2019-03-24T19:40:27.542Z,40.33
2019-03-24T19:42:56.204Z,44.23
2019-03-24T19:45:25.106Z,38.83
2019-03-24T19:47:55.156Z,42.53
2019-03-24T19:50:23.906Z,39.00
2019-03-24T19:52:52.550Z,40.27
2019-03-24T19:55:21.001Z,38.70
2019-03-24T19:57:49.590Z,42.63
2019-03-24T20:00:18.203Z,38.93
2019-03-24T20:02:46.697Z,38.80
2019-03-24T20:05:15.209Z,40.37
2019-03-24T20:07:47.865Z,38.53
2019-03-24T20:10:14.023Z,39.27
2019-03-24T20:12:42.581Z,36.87
2019-03-24T20:15:11.195Z,37.10
2019-03-24T20:17:39.754Z,34.37
2019-03-24T20:20:08.557Z,37.97
2019-03-24T20:22:37.103Z,36.37
2019-03-24T20:25:07.286Z,36.50
2019-03-24T20:27:35.807Z,39.30
2019-03-24T20:30:10.490Z,40.47
2019-03-24T20:32:39.147Z,37.67
2019-03-24T20:35:08.231Z,36.97
2019-03-24T20:37:36.698Z,42.53
2019-03-24T20:40:06.498Z,35.80
2019-03-24T20:42:35.018Z,37.10
2019-03-24T20:45:04.693Z,40.23
2019-03-24T20:47:33.130Z,35.50
2019-03-24T20:50:03.760Z,38.53
2019-03-24T20:52:31.849Z,36.33
2019-03-24T20:55:00.365Z,35.90
2019-03-24T20:57:28.934Z,35.80
2019-03-24T20:59:57.394Z,34.37
2019-03-24T21:02:25.899Z,35.30
2019-03-24T21:04:54.507Z,36.47
2019-03-24T21:07:22.976Z,35.60
2019-03-24T21:09:51.505Z,35.30
2019-03-24T21:12:20.059Z,38.97
2019-03-24T21:14:48.518Z,34.63
2019-03-24T21:17:16.974Z,33.57
2019-03-24T21:19:45.466Z,31.67
2019-03-24T21:22:13.975Z,32.83
2019-03-24T21:24:42.475Z,33.97
2019-03-24T21:27:10.913Z,36.93
2019-03-24T21:29:39.444Z,37.20
2019-03-24T21:32:07.977Z,31.77
2019-03-24T21:34:36.413Z,30.10
2019-03-24T21:37:04.931Z,30.10
2019-03-24T21:39:33.390Z,28.30
2019-03-24T21:42:01.892Z,27.53
2019-03-24T21:44:30.423Z,29.70
2019-03-24T21:46:58.880Z,28.20
2019-03-24T21:49:27.408Z,27.00
2019-03-24T21:51:55.864Z,30.50
2019-03-24T21:54:24.312Z,31.03
2019-03-24T21:56:52.766Z,29.13
2019-03-24T21:59:21.268Z,28.53
2019-03-24T22:01:49.719Z,27.07
2019-03-24T22:04:18.154Z,26.00
2019-03-24T22:06:46.641Z,26.97
2019-03-24T22:09:15.064Z,27.47
2019-03-24T22:11:43.597Z,26.13
2019-03-24T22:14:12.108Z,26.50
2019-03-24T22:16:40.578Z,31.17
2019-03-24T22:19:09.013Z,27.77
2019-03-24T22:21:37.520Z,27.60
2019-03-24T22:24:05.963Z,31.47
2019-03-24T22:26:34.390Z,29.27
2019-03-24T22:29:02.837Z,25.43
2019-03-24T22:31:31.322Z,25.17
2019-03-24T22:33:59.896Z,23.77
2019-03-24T22:36:28.338Z,22.70
2019-03-24T22:38:56.879Z,22.63
2019-03-24T22:41:25.337Z,25.43
2019-03-24T22:43:53.777Z,24.60
2019-03-24T22:46:22.222Z,21.80
2019-03-24T22:48:50.650Z,21.53
2019-03-24T22:51:19.146Z,24.67
2019-03-24T22:53:47.590Z,23.97
2019-03-24T22:56:16.008Z,22.80
2019-03-24T22:58:44.537Z,25.87
2019-03-24T23:01:13.735Z,23.70
2019-03-24T23:03:42.319Z,27.77
2019-03-24T23:06:10.733Z,27.10
2019-03-24T23:08:39.229Z,24.63
2019-03-24T23:11:07.735Z,25.10
2019-03-24T23:13:36.207Z,26.80
2019-03-24T23:16:04.708Z,28.27
2019-03-24T23:18:33.128Z,27.77
2019-03-24T23:21:01.585Z,29.30
2019-03-24T23:23:30.011Z,28.93
2019-03-24T23:25:58.486Z,27.30
2019-03-24T23:28:26.918Z,28.83
2019-03-24T23:30:55.372Z,30.67
2019-03-24T23:33:23.797Z,28.40
2019-03-24T23:35:52.345Z,28.27
2019-03-24T23:38:20.942Z,29.40
2019-03-24T23:40:49.501Z,29.80
2019-03-24T23:43:18.049Z,30.40
2019-03-24T23:45:46.493Z,31.40
2019-03-24T23:48:14.985Z,30.17
2019-03-24T23:50:43.442Z,26.73
2019-03-24T23:53:12.420Z,26.50
2019-03-24T23:55:40.933Z,28.13
2019-03-24T23:58:09.379Z,23.27
